Pagrindinis puslapis
METAR-TAF:

METAR-TAF

Oro uostai :

Bazelis-Miulūzas-Freiburgas, Prancūzija

platuma: 47-36N, ilguma: 007-31E, Aukštis: 270 m

Dabartinis oras

Ataskaita buvo paskelbta 27 minutes, ne 20:30 UTC
Vėjas 4 kt iš Pietų
Temperatūra 8°C
Drėgmė 87%
Slėgis 1013 hPa
Matomumas 10 km arba daugiau
nėra debesų žemiau 1500 m ir nėra kamuolinių lietaus debesų

METAR: LFSB 272030Z 17004KT CAVOK 08/06 Q1013 NOSIG

Laikas: 21:57 (20:57 UTC)

Prognozė

Ataskaita buvo paskelbta 3 valandos ir 57 minutes, ne 17:00 UTC
Prognozė galioja nuo 27 metu 18 UTC su 28 metu 18 UTC
Vėjas 5 kt iš Pietų
Matomumas 10 km arba daugiau
Mažai debesys ne aukštis 4000 ft
Laikinai
nuo 28 metu 01 UTC su 28 metu 09 UTC
lietus
Laikinai
nuo 28 metu 09 UTC su 28 metu 18 UTC
Vėjas 10 kt iš Vakarų/Pietvakarių
Tikimybė 40% :
Laikinai
nuo 28 metu 15 UTC su 28 metu 18 UTC
Mažai debesys ne aukštis 3000 ft, aukštai iškilę kamuoliniai debesys.
lietus

TAF: LFSB 271700Z 2718/2818 18005KT 9999 FEW040 TEMPO 2801/2809 -RA TEMPO 2809/2818 25010KT PROB40 TEMPO 2815/2818 SHRA FEW030TCU

Orai ataskaitas ir orų prognozės (METAR, TAF).

turimą stotys yra geltonos ir raudonos taškus žemėlapyje.

Perkelti pele per norėdami pamatyti stoties vardą.

Tada spustelėkite, norėdami matyti oro stebėjimo ir prognozės.

Norėdami pakeisti žemėlapį: spustelėkite ant žalios mygtukų su juodo kryžiaus žemyn,; žalią mygtuką su brūkšneliu, jei norite nutolinti; arba žalių rodyklių gretimoms žemėlapius.


METAR-TAF: